createdAt,value
2023-04-05T00:00:44.357Z,99195.78
2023-04-05T00:01:50.142Z,99201.19
2023-04-05T00:02:53.060Z,99197.41
2023-04-05T00:03:57.717Z,99187.16
2023-04-05T00:05:01.034Z,99198.22
2023-04-05T00:06:05.302Z,99193.34
2023-04-05T00:07:08.283Z,99189.84
2023-04-05T00:08:13.626Z,99191.72
2023-04-05T00:09:15.505Z,99194.41
2023-04-05T00:10:17.802Z,99187.16
2023-04-05T00:11:19.625Z,99189.03
2023-04-05T00:12:21.624Z,99186.59
2023-04-05T00:13:23.773Z,99184.97
2023-04-05T00:14:25.906Z,99182.28
2023-04-05T00:15:28.302Z,99180.13
2023-04-05T00:16:30.854Z,99179.88
2023-04-05T00:17:33.460Z,99179.06
2023-04-05T00:18:38.755Z,99172.31
2023-04-05T00:19:40.904Z,99175.03
2023-04-05T00:20:42.938Z,99176.63
2023-04-05T00:21:45.106Z,99170.44
2023-04-05T00:22:46.951Z,99172.06
2023-04-05T00:23:55.402Z,99179.31
2023-04-05T00:24:57.198Z,99175.28
2023-04-05T00:25:58.972Z,99167.22
2023-04-05T00:27:01.291Z,99166.38
2023-04-05T00:28:05.883Z,99163.44
2023-04-05T00:29:07.781Z,99163.94
2023-04-05T00:30:09.977Z,99162.34
2023-04-05T00:31:12.212Z,99158.03
2023-04-05T00:32:14.264Z,99155.88
2023-04-05T00:33:17.438Z,99150.75
2023-04-05T00:34:19.363Z,99154.53
2023-04-05T00:35:21.369Z,99150.22
2023-04-05T00:36:23.555Z,99150.22
2023-04-05T00:37:25.572Z,99154.78
2023-04-05T00:38:27.547Z,99149.41
2023-04-05T00:39:29.497Z,99151.03
2023-04-05T00:40:31.497Z,99153.19
2023-04-05T00:41:33.357Z,99145.91
2023-04-05T00:42:35.253Z,99149.94
2023-04-05T00:43:37.346Z,99143.47
2023-04-05T00:44:39.214Z,99143.75
2023-04-05T00:45:42.377Z,99149.13
2023-04-05T00:46:44.207Z,99137.56
2023-04-05T00:47:46.613Z,99138.09
2023-04-05T00:48:49.057Z,99146.97
2023-04-05T00:49:51.297Z,99140.25
2023-04-05T00:50:53.592Z,99139.44
2023-04-05T00:51:57.767Z,99143.75
2023-04-05T00:53:00.040Z,99144.81
2023-04-05T00:54:03.035Z,99147.75
2023-04-05T00:55:07.362Z,99140.50
2023-04-05T00:56:10.351Z,99141.56
2023-04-05T00:57:13.020Z,99134.56
2023-04-05T00:58:21.504Z,99142.94
2023-04-05T00:59:23.652Z,99137.25
2023-04-05T01:00:27.305Z,99134.56
2023-04-05T01:01:29.391Z,99131.06
2023-04-05T01:02:34.502Z,99133.75
2023-04-05T01:03:41.196Z,99141.03
2023-04-05T01:04:51.146Z,99130.25
2023-04-05T01:06:10.166Z,99134.28
2023-04-05T01:07:28.959Z,99126.53
2023-04-05T01:08:55.954Z,99132.72
2023-04-05T01:10:00.448Z,99130.25
2023-04-05T01:11:06.965Z,99127.28
2023-04-05T01:12:17.260Z,99120.28
2023-04-05T01:13:19.304Z,99130.25
2023-04-05T01:14:21.122Z,99125.38
2023-04-05T01:15:23.013Z,99124.56
2023-04-05T01:16:25.081Z,99125.38
2023-04-05T01:17:30.821Z,99122.69
2023-04-05T01:18:36.426Z,99131.84
2023-04-05T01:19:42.313Z,99121.88
2023-04-05T01:21:20.914Z,99128.38
2023-04-05T01:23:06.769Z,99118.72
2023-04-05T01:24:39.185Z,99120.59
2023-04-05T01:26:21.386Z,99121.63
2023-04-05T01:27:50.596Z,99120.03
2023-04-05T01:29:25.165Z,99123.00
2023-04-05T01:30:58.175Z,99119.22
2023-04-05T01:32:20.402Z,99115.69
2023-04-05T01:33:40.646Z,99113.81
2023-04-05T01:34:56.403Z,99117.03
2023-04-05T01:36:48.614Z,99111.69
2023-04-05T01:37:59.709Z,99109.22
2023-04-05T01:39:05.211Z,99116.22
2023-04-05T01:40:08.714Z,99109.97
2023-04-05T01:41:11.238Z,99112.94
2023-04-05T01:42:14.001Z,99110.50
2023-04-05T01:43:17.978Z,99109.16
2023-04-05T01:44:20.122Z,99114.28
2023-04-05T01:45:22.006Z,99104.59
2023-04-05T01:46:24.677Z,99106.19
2023-04-05T01:47:26.622Z,99098.38
2023-04-05T01:48:28.766Z,99104.81
2023-04-05T01:49:31.008Z,99102.94
2023-04-05T01:50:32.956Z,99102.94
2023-04-05T01:51:34.890Z,99103.78
2023-04-05T01:52:36.776Z,99109.97
2023-04-05T01:53:38.602Z,99100.25
2023-04-05T01:54:40.496Z,99102.94
2023-04-05T01:55:42.266Z,99107.28
2023-04-05T01:56:46.047Z,99105.91
2023-04-05T01:57:50.294Z,99100.25
2023-04-05T01:58:52.141Z,99102.94
2023-04-05T01:59:54.211Z,99102.13
2023-04-05T02:00:56.929Z,99104.00
2023-04-05T02:01:58.772Z,99102.13
2023-04-05T02:03:01.870Z,99112.66
2023-04-05T02:04:03.769Z,99102.94
2023-04-05T02:05:06.438Z,99094.31
2023-04-05T02:06:08.662Z,99104.00
2023-04-05T02:07:10.972Z,99102.13
2023-04-05T02:08:14.257Z,99106.47
2023-04-05T02:09:16.462Z,99100.50
2023-04-05T02:10:19.990Z,99102.13
2023-04-05T02:11:22.125Z,99098.91
2023-04-05T02:12:24.007Z,99107.78
2023-04-05T02:13:26.195Z,99106.44
2023-04-05T02:14:28.428Z,99106.44
2023-04-05T02:15:30.269Z,99106.16
2023-04-05T02:16:35.080Z,99104.53
2023-04-05T02:17:40.041Z,99101.84
2023-04-05T02:18:43.637Z,99098.34
2023-04-05T02:19:46.232Z,99099.69
2023-04-05T02:20:52.163Z,99100.50
2023-04-05T02:21:54.570Z,99100.78
2023-04-05T02:22:58.448Z,99099.69
2023-04-05T02:24:00.435Z,99102.94
2023-04-05T02:25:03.742Z,99092.16
2023-04-05T02:26:05.981Z,99096.19
2023-04-05T02:27:07.803Z,99088.41
2023-04-05T02:28:11.401Z,99088.41
2023-04-05T02:29:13.896Z,99084.63
2023-04-05T02:30:15.785Z,99085.97
2023-04-05T02:31:17.965Z,99083.81
2023-04-05T02:32:19.817Z,99080.88
2023-04-05T02:33:24.250Z,99085.16
2023-04-05T02:34:27.844Z,99087.84
2023-04-05T02:35:29.665Z,99082.47
2023-04-05T02:36:31.647Z,99088.66
2023-04-05T02:37:33.655Z,99086.25
2023-04-05T02:38:36.250Z,99083.56
2023-04-05T02:39:38.183Z,99088.13
2023-04-05T02:40:41.875Z,99085.44
2023-04-05T02:41:44.242Z,99086.25
2023-04-05T02:42:46.262Z,99081.94
2023-04-05T02:43:48.283Z,99080.31
2023-04-05T02:44:50.594Z,99077.63
2023-04-05T02:45:52.484Z,99079.50
2023-04-05T02:46:54.395Z,99087.59
2023-04-05T02:47:56.306Z,99080.56
2023-04-05T02:48:58.210Z,99086.78
2023-04-05T02:50:00.496Z,99088.41
2023-04-05T02:51:02.379Z,99088.91
2023-04-05T02:52:04.501Z,99078.94
2023-04-05T02:53:06.430Z,99085.13
2023-04-05T02:54:08.618Z,99082.72
2023-04-05T02:55:10.457Z,99080.81
2023-04-05T02:56:13.846Z,99083.78
2023-04-05T02:57:16.569Z,99088.09
2023-04-05T02:58:19.087Z,99077.31
2023-04-05T02:59:21.286Z,99077.31
2023-04-05T03:00:23.541Z,99081.09
2023-04-05T03:01:25.832Z,99078.66
2023-04-05T03:02:28.147Z,99080.28
2023-04-05T03:03:30.108Z,99080.56
2023-04-05T03:04:34.457Z,99084.06
2023-04-05T03:05:36.842Z,99080.28
2023-04-05T03:06:39.402Z,99077.06
2023-04-05T03:07:42.599Z,99070.88
2023-04-05T03:08:44.493Z,99075.44
2023-04-05T03:09:46.892Z,99075.44
2023-04-05T03:10:51.861Z,99078.13
2023-04-05T03:11:53.975Z,99074.09
2023-04-05T03:12:56.048Z,99079.22
2023-04-05T03:13:58.188Z,99082.16
2023-04-05T03:15:00.174Z,99077.59
2023-04-05T03:16:03.417Z,99079.47
2023-04-05T03:17:06.324Z,99079.47
2023-04-05T03:18:09.268Z,99077.03
2023-04-05T03:19:12.527Z,99072.72
2023-04-05T03:20:14.367Z,99072.72
2023-04-05T03:21:18.606Z,99070.03
2023-04-05T03:22:21.787Z,99067.34
2023-04-05T03:23:29.734Z,99065.75
2023-04-05T03:24:32.390Z,99073.53
2023-04-05T03:25:37.062Z,99076.47
2023-04-05T03:26:38.978Z,99073.25
2023-04-05T03:27:40.829Z,99078.34
2023-04-05T03:28:45.344Z,99074.88
2023-04-05T03:29:47.215Z,99065.97
2023-04-05T03:30:49.115Z,99062.75
2023-04-05T03:31:52.165Z,99073.50
2023-04-05T03:32:54.239Z,99071.38
2023-04-05T03:33:56.325Z,99072.44
2023-04-05T03:34:58.224Z,99067.88
2023-04-05T03:36:00.411Z,99070.81
2023-04-05T03:37:02.633Z,99064.63
2023-04-05T03:38:05.852Z,99077.28
2023-04-05T03:39:12.537Z,99067.88
2023-04-05T03:40:14.527Z,99071.09
2023-04-05T03:41:27.919Z,99072.97
2023-04-05T03:42:29.924Z,99077.00
2023-04-05T03:43:33.490Z,99068.41
2023-04-05T03:44:35.257Z,99077.81
2023-04-05T03:45:37.234Z,99067.06
2023-04-05T03:46:39.533Z,99075.13
2023-04-05T03:47:50.574Z,99062.22
2023-04-05T03:48:52.859Z,99064.34
2023-04-05T03:49:56.854Z,99069.97
2023-04-05T03:50:59.062Z,99071.06
2023-04-05T03:52:00.885Z,99072.94
2023-04-05T03:53:03.403Z,99068.09
2023-04-05T03:54:05.631Z,99069.44
2023-04-05T03:55:08.243Z,99070.50
2023-04-05T03:56:10.519Z,99071.31
2023-04-05T03:57:12.419Z,99066.19
2023-04-05T03:58:14.429Z,99066.19
2023-04-05T03:59:16.545Z,99066.47
2023-04-05T04:00:18.974Z,99062.16
2023-04-05T04:01:21.565Z,99068.09
2023-04-05T04:02:23.387Z,99067.53
2023-04-05T04:03:26.132Z,99066.72
2023-04-05T04:04:28.337Z,99064.31
2023-04-05T04:05:31.292Z,99067.81
2023-04-05T04:06:33.356Z,99062.97
2023-04-05T04:07:35.300Z,99064.59
2023-04-05T04:08:37.566Z,99064.84
2023-04-05T04:09:39.356Z,99065.13
2023-04-05T04:10:41.459Z,99065.94
2023-04-05T04:11:43.302Z,99068.63
2023-04-05T04:12:46.419Z,99076.69
2023-04-05T04:13:48.537Z,99064.31
2023-04-05T04:14:50.507Z,99067.81
2023-04-05T04:15:52.828Z,99060.25
2023-04-05T04:16:54.581Z,99058.38
2023-04-05T04:17:56.775Z,99061.63
2023-04-05T04:18:58.804Z,99061.06
2023-04-05T04:20:01.065Z,99059.19
2023-04-05T04:21:07.404Z,99055.66
2023-04-05T04:22:10.407Z,99058.38
2023-04-05T04:23:14.416Z,99058.13
2023-04-05T04:24:19.042Z,99056.50
2023-04-05T04:25:21.961Z,99055.94
2023-04-05T04:26:28.899Z,99052.44
2023-04-05T04:27:32.408Z,99054.88
2023-04-05T04:28:39.688Z,99057.56
2023-04-05T04:29:46.982Z,99059.44
2023-04-05T04:30:49.282Z,99060.00
2023-04-05T04:31:51.480Z,99055.66
2023-04-05T04:32:54.715Z,99059.44
2023-04-05T04:33:56.529Z,99058.63
2023-04-05T04:34:59.406Z,99054.88
2023-04-05T04:36:09.407Z,99056.50
2023-04-05T04:37:18.444Z,99056.50
2023-04-05T04:38:20.576Z,99051.63
2023-04-05T04:39:26.814Z,99046.25
2023-04-05T04:40:39.470Z,99047.09
2023-04-05T04:41:47.131Z,99043.88
2023-04-05T04:42:49.933Z,99043.56
2023-04-05T04:43:54.941Z,99051.63
2023-04-05T04:44:58.093Z,99048.94
2023-04-05T04:46:00.213Z,99049.22
2023-04-05T04:47:02.078Z,99058.91
2023-04-05T04:48:05.136Z,99055.94
2023-04-05T04:49:07.131Z,99060.25
2023-04-05T04:50:10.611Z,99054.59
2023-04-05T04:51:12.566Z,99066.97
2023-04-05T04:52:14.429Z,99072.59
2023-04-05T04:53:20.148Z,99069.38
2023-04-05T04:54:23.354Z,99069.66
2023-04-05T04:55:26.412Z,99077.44
2023-04-05T04:56:28.493Z,99077.72
2023-04-05T04:57:30.606Z,99077.72
2023-04-05T04:58:32.470Z,99078.53
2023-04-05T04:59:34.572Z,99075.84
2023-04-05T05:00:41.793Z,99080.94
2023-04-05T05:01:46.920Z,99079.06
2023-04-05T05:02:51.303Z,99080.13
2023-04-05T05:03:53.612Z,99082.28
2023-04-05T05:04:55.447Z,99078.78
2023-04-05T05:05:57.480Z,99083.38
2023-04-05T05:06:59.366Z,99082.28
2023-04-05T05:08:01.828Z,99079.59
2023-04-05T05:09:03.966Z,99079.59
2023-04-05T05:10:07.722Z,99076.66
2023-04-05T05:11:10.776Z,99079.88
2023-04-05T05:12:12.620Z,99080.41
2023-04-05T05:13:14.402Z,99089.53
2023-04-05T05:14:16.576Z,99085.78
2023-04-05T05:15:19.779Z,99080.66
2023-04-05T05:16:23.476Z,99088.75
2023-04-05T05:17:26.671Z,99086.06
2023-04-05T05:18:28.601Z,99080.66
2023-04-05T05:19:31.784Z,99075.28
2023-04-05T05:20:33.543Z,99080.66
2023-04-05T05:21:36.810Z,99080.66
2023-04-05T05:22:39.849Z,99081.75
2023-04-05T05:23:41.761Z,99081.47
2023-04-05T05:24:45.435Z,99078.78
2023-04-05T05:25:48.078Z,99077.97
2023-04-05T05:26:50.983Z,99081.47
2023-04-05T05:27:52.920Z,99086.06
2023-04-05T05:28:54.773Z,99083.38
2023-04-05T05:29:56.925Z,99081.75
2023-04-05T05:30:58.832Z,99088.75
2023-04-05T05:32:00.805Z,99084.16
2023-04-05T05:33:02.876Z,99075.28
2023-04-05T05:34:04.927Z,99087.13
2023-04-05T05:35:08.349Z,99074.47
2023-04-05T05:36:10.198Z,99077.97
2023-04-05T05:37:13.198Z,99075.56
2023-04-05T05:38:15.062Z,99079.59
2023-04-05T05:39:16.911Z,99067.50
2023-04-05T05:40:19.139Z,99069.91
2023-04-05T05:41:23.966Z,99075.28
2023-04-05T05:42:27.366Z,99079.06
2023-04-05T05:43:29.319Z,99065.06
2023-04-05T05:44:31.846Z,99068.56
2023-04-05T05:45:34.566Z,99073.69
2023-04-05T05:46:36.574Z,99072.59
2023-04-05T05:47:38.413Z,99076.91
2023-04-05T05:48:42.145Z,99067.22
2023-04-05T05:49:43.968Z,99072.59
2023-04-05T05:50:48.959Z,99075.28
2023-04-05T05:51:52.566Z,99078.78
2023-04-05T05:52:54.940Z,99077.97
2023-04-05T05:53:56.717Z,99081.19
2023-04-05T05:54:58.969Z,99081.75
2023-04-05T05:56:01.295Z,99082.00
2023-04-05T05:57:03.581Z,99083.09
2023-04-05T05:58:05.327Z,99082.53
2023-04-05T05:59:07.468Z,99083.63
2023-04-05T06:00:10.582Z,99086.31
2023-04-05T06:01:12.665Z,99087.38
2023-04-05T06:02:15.043Z,99089.81
2023-04-05T06:03:17.244Z,99095.72
2023-04-05T06:04:21.881Z,99094.38
2023-04-05T06:05:23.839Z,99096.25
2023-04-05T06:06:26.925Z,99101.09
2023-04-05T06:07:28.922Z,99090.34
2023-04-05T06:08:30.708Z,99097.06
2023-04-05T06:09:35.293Z,99094.91
2023-04-05T06:10:38.299Z,99089.28
2023-04-05T06:11:53.103Z,99087.13
2023-04-05T06:12:57.612Z,99089.00
2023-04-05T06:13:59.437Z,99091.97
2023-04-05T06:15:02.231Z,99092.75
2023-04-05T06:16:04.459Z,99088.19
2023-04-05T06:17:07.903Z,99092.75
2023-04-05T06:18:10.919Z,99097.06
2023-04-05T06:19:12.737Z,99092.75
2023-04-05T06:20:16.794Z,99097.06
2023-04-05T06:21:18.886Z,99091.16
2023-04-05T06:22:21.422Z,99100.84
2023-04-05T06:23:23.253Z,99098.94
2023-04-05T06:24:26.394Z,99100.03
2023-04-05T06:25:28.575Z,99100.84
2023-04-05T06:26:31.605Z,99099.22
2023-04-05T06:27:33.720Z,99102.72
2023-04-05T06:28:35.771Z,99098.94
2023-04-05T06:29:37.701Z,99103.53
2023-04-05T06:30:39.675Z,99096.53
2023-04-05T06:31:42.702Z,99097.34
2023-04-05T06:32:44.888Z,99090.59
2023-04-05T06:33:48.186Z,99096.22
2023-04-05T06:34:50.092Z,99097.88
2023-04-05T06:35:52.378Z,99102.41
2023-04-05T06:36:55.862Z,99094.34
2023-04-05T06:37:57.689Z,99098.06
2023-04-05T06:38:59.690Z,99093.75
2023-04-05T06:40:01.569Z,99093.75
2023-04-05T06:41:04.799Z,99099.41
2023-04-05T06:42:06.624Z,99095.91
2023-04-05T06:43:13.086Z,99099.41
2023-04-05T06:44:14.995Z,99092.94
2023-04-05T06:45:19.092Z,99095.63
2023-04-05T06:46:21.270Z,99086.78
2023-04-05T06:47:23.274Z,99085.97
2023-04-05T06:48:25.455Z,99093.22
2023-04-05T06:49:28.480Z,99086.78
2023-04-05T06:50:31.221Z,99096.72
2023-04-05T06:51:33.156Z,99092.16
2023-04-05T06:52:35.725Z,99090.53
2023-04-05T06:53:38.725Z,99091.34
2023-04-05T06:54:40.562Z,99088.38
2023-04-05T06:55:48.957Z,99090.53
2023-04-05T06:56:53.219Z,99090.00
2023-04-05T06:57:55.109Z,99090.84
2023-04-05T06:58:59.498Z,99091.34
2023-04-05T07:00:01.499Z,99090.00
2023-04-05T07:01:03.616Z,99092.69
2023-04-05T07:02:06.804Z,99086.50
2023-04-05T07:03:09.082Z,99097.59
2023-04-05T07:04:12.968Z,99093.28
2023-04-05T07:05:15.193Z,99100.56
2023-04-05T07:06:17.040Z,99092.47
2023-04-05T07:07:19.108Z,99097.59
2023-04-05T07:08:21.972Z,99094.66
2023-04-05T07:09:25.587Z,99094.66
2023-04-05T07:10:29.038Z,99098.13
2023-04-05T07:11:33.032Z,99094.38
2023-04-05T07:12:35.236Z,99094.66
2023-04-05T07:13:37.476Z,99090.34
2023-04-05T07:14:39.527Z,99088.47
2023-04-05T07:15:41.751Z,99091.72
2023-04-05T07:16:43.823Z,99095.19
2023-04-05T07:17:47.521Z,99097.88
2023-04-05T07:18:49.949Z,99092.50
2023-04-05T07:19:51.897Z,99089.59
2023-04-05T07:21:00.459Z,99090.69
2023-04-05T07:22:02.439Z,99091.47
2023-04-05T07:23:06.183Z,99094.19
2023-04-05T07:24:08.252Z,99090.69
2023-04-05T07:25:10.853Z,99087.72
2023-04-05T07:26:12.945Z,99088.53
2023-04-05T07:27:16.114Z,99090.94
2023-04-05T07:28:17.966Z,99092.56
2023-04-05T07:29:19.777Z,99088.00
2023-04-05T07:30:22.038Z,99088.00
2023-04-05T07:31:24.252Z,99091.25
2023-04-05T07:32:26.257Z,99087.75
2023-04-05T07:33:28.289Z,99094.50
2023-04-05T07:34:30.616Z,99085.63
2023-04-05T07:35:32.734Z,99092.88
2023-04-05T07:36:37.007Z,99096.09
2023-04-05T07:37:39.244Z,99087.50
2023-04-05T07:38:41.826Z,99085.88
2023-04-05T07:39:43.673Z,99079.16
2023-04-05T07:40:45.475Z,99091.81
2023-04-05T07:41:47.339Z,99089.94
2023-04-05T07:42:49.156Z,99099.63
2023-04-05T07:43:51.160Z,99088.03
2023-04-05T07:44:53.082Z,99089.66
2023-04-05T07:46:03.507Z,99101.81
2023-04-05T07:47:05.725Z,99095.09
2023-04-05T07:48:07.788Z,99096.69
2023-04-05T07:49:09.705Z,99098.56
2023-04-05T07:50:14.922Z,99103.97
2023-04-05T07:51:17.127Z,99096.44
2023-04-05T07:52:19.460Z,99098.03
2023-04-05T07:53:21.555Z,99098.03
2023-04-05T07:54:24.956Z,99103.16
2023-04-05T07:55:29.859Z,99102.63
2023-04-05T07:56:32.478Z,99099.41
2023-04-05T07:57:34.383Z,99107.47
2023-04-05T07:58:41.326Z,99102.91
2023-04-05T07:59:43.347Z,99104.53
2023-04-05T08:00:46.231Z,99101.84
2023-04-05T08:01:49.565Z,99100.78
2023-04-05T08:02:51.811Z,99091.63
2023-04-05T08:03:57.768Z,99098.63
2023-04-05T08:04:59.717Z,99099.16
2023-04-05T08:06:15.146Z,99099.75
2023-04-05T08:07:17.143Z,99101.31
2023-04-05T08:08:19.148Z,99106.69
2023-04-05T08:09:21.291Z,99098.63
2023-04-05T08:10:23.133Z,99098.38
2023-04-05T08:11:26.465Z,99096.25
2023-04-05T08:12:32.169Z,99098.66
2023-04-05T08:13:34.479Z,99097.03
2023-04-05T08:14:36.306Z,99096.25
2023-04-05T08:15:38.226Z,99096.78
2023-04-05T08:16:40.403Z,99094.34
2023-04-05T08:17:43.663Z,99105.94
2023-04-05T08:18:45.862Z,99099.47
2023-04-05T08:19:47.705Z,99095.16
2023-04-05T08:20:55.234Z,99094.41
2023-04-05T08:21:57.263Z,99096.56
2023-04-05T08:22:59.077Z,99090.91
2023-04-05T08:24:01.090Z,99089.84
2023-04-05T08:25:05.308Z,99097.38
2023-04-05T08:26:07.895Z,99095.75
2023-04-05T08:27:09.836Z,99093.88
2023-04-05T08:28:12.860Z,99101.97
2023-04-05T08:29:17.216Z,99091.19
2023-04-05T08:30:19.977Z,99088.22
2023-04-05T08:31:22.317Z,99095.22
2023-04-05T08:32:24.271Z,99093.34
2023-04-05T08:33:26.566Z,99087.97
2023-04-05T08:34:28.440Z,99094.69
2023-04-05T08:35:31.149Z,99095.53
2023-04-05T08:36:32.991Z,99091.50
2023-04-05T08:37:35.984Z,99089.88
2023-04-05T08:38:38.011Z,99098.50
2023-04-05T08:39:40.022Z,99094.44
2023-04-05T08:40:48.094Z,99093.09
2023-04-05T08:42:17.446Z,99093.94
2023-04-05T08:43:40.631Z,99087.19
2023-04-05T08:44:45.802Z,99088.81
2023-04-05T08:45:51.378Z,99086.41
2023-04-05T08:46:56.371Z,99089.91
2023-04-05T08:47:59.021Z,99089.34
2023-04-05T08:49:11.132Z,99095.56
2023-04-05T08:50:13.707Z,99095.81
2023-04-05T08:51:23.934Z,99101.47
2023-04-05T08:52:26.296Z,99093.13
2023-04-05T08:53:28.501Z,99087.75
2023-04-05T08:54:30.714Z,99090.44
2023-04-05T08:55:33.020Z,99094.75
2023-04-05T08:56:36.683Z,99091.78
2023-04-05T08:57:44.357Z,99083.69
2023-04-05T08:58:57.814Z,99090.97
2023-04-05T09:00:01.722Z,99087.75
2023-04-05T09:01:07.604Z,99087.47
2023-04-05T09:02:18.841Z,99095.03
2023-04-05T09:03:31.626Z,99095.56
2023-04-05T09:04:44.953Z,99091.25
2023-04-05T09:05:51.406Z,99089.66
2023-04-05T09:06:59.381Z,99081.56
2023-04-05T09:08:02.330Z,99088.28
2023-04-05T09:09:08.513Z,99093.16
2023-04-05T09:10:13.634Z,99082.66
2023-04-05T09:11:17.105Z,99089.13
2023-04-05T09:12:22.701Z,99083.72
2023-04-05T09:13:24.572Z,99092.06
2023-04-05T09:14:29.080Z,99090.47
2023-04-05T09:15:35.493Z,99088.03
2023-04-05T09:16:42.842Z,99093.91
2023-04-05T09:17:47.392Z,99088.81
2023-04-05T09:18:49.678Z,99093.41
2023-04-05T09:19:51.576Z,99085.59
2023-04-05T09:21:03.766Z,99096.13
2023-04-05T09:22:08.106Z,99098.00
2023-04-05T09:23:10.997Z,99095.56
2023-04-05T09:24:13.907Z,99092.59
2023-04-05T09:25:54.709Z,99097.47
2023-04-05T09:27:15.560Z,99087.00
2023-04-05T09:28:19.569Z,99091.53
2023-04-05T09:29:31.224Z,99090.19
2023-04-05T09:30:35.866Z,99090.75
2023-04-05T09:31:38.822Z,99085.34
2023-04-05T09:32:47.244Z,99093.69
2023-04-05T09:33:49.460Z,99090.16
2023-04-05T09:34:54.422Z,99092.06
2023-04-05T09:35:56.614Z,99093.16
2023-04-05T09:36:59.705Z,99089.13
2023-04-05T09:38:05.088Z,99091.28
2023-04-05T09:39:09.305Z,99085.06
2023-04-05T09:40:14.518Z,99085.63
2023-04-05T09:41:16.631Z,99078.34
2023-04-05T09:42:23.238Z,99083.47
2023-04-05T09:43:42.463Z,99081.63
2023-04-05T09:45:02.820Z,99078.88
2023-04-05T09:46:05.336Z,99083.47
2023-04-05T09:47:18.366Z,99077.81
2023-04-05T09:48:20.386Z,99079.97
2023-04-05T09:49:34.638Z,99071.66
2023-04-05T09:50:37.301Z,99074.31
2023-04-05T09:51:39.492Z,99071.34
2023-04-05T09:52:42.520Z,99074.59
2023-04-05T09:54:04.803Z,99070.84
2023-04-05T09:55:07.598Z,99069.78
2023-04-05T09:56:13.707Z,99068.97
2023-04-05T09:57:18.049Z,99069.78
2023-04-05T09:58:21.943Z,99070.84
2023-04-05T09:59:23.923Z,99063.31
2023-04-05T10:00:26.231Z,99057.84
2023-04-05T10:01:32.233Z,99059.47
2023-04-05T10:02:39.708Z,99063.81
2023-04-05T10:03:49.637Z,99055.72
2023-04-05T10:04:52.676Z,99059.25
2023-04-05T10:05:57.911Z,99056.56
2023-04-05T10:07:00.245Z,99066.25
2023-04-05T10:08:02.695Z,99068.69
2023-04-05T10:09:06.639Z,99056.81
2023-04-05T10:10:16.424Z,99063.84
2023-04-05T10:11:23.570Z,99064.13
2023-04-05T10:12:27.527Z,99065.69
2023-04-05T10:13:30.485Z,99063.31
2023-04-05T10:14:32.333Z,99061.69
2023-04-05T10:15:35.816Z,99062.75
2023-04-05T10:16:47.842Z,99063.28
2023-04-05T10:18:00.959Z,99058.97
2023-04-05T10:19:10.297Z,99057.91
2023-04-05T10:20:21.648Z,99062.75
2023-04-05T10:21:29.987Z,99061.13
2023-04-05T10:23:30.642Z,99061.13
2023-04-05T10:24:52.016Z,99066.00
2023-04-05T10:25:54.107Z,99060.31
2023-04-05T10:27:29.231Z,99060.31
2023-04-05T10:28:36.573Z,99055.75
2023-04-05T10:30:05.033Z,99047.66
2023-04-05T10:31:37.121Z,99045.25
2023-04-05T10:33:14.855Z,99051.72
2023-04-05T10:34:43.295Z,99050.63
2023-04-05T10:36:32.005Z,99048.47
2023-04-05T10:38:19.352Z,99053.84
2023-04-05T10:39:44.749Z,99043.34
2023-04-05T10:40:53.832Z,99048.75
2023-04-05T10:42:13.985Z,99054.94
2023-04-05T10:43:23.202Z,99045.53
2023-04-05T10:44:26.618Z,99041.19
2023-04-05T10:45:29.550Z,99048.47
2023-04-05T10:46:35.335Z,99045.53
2023-04-05T10:47:45.476Z,99048.47
2023-04-05T10:49:04.473Z,99037.97
2023-04-05T10:50:14.515Z,99042.28
2023-04-05T10:51:16.785Z,99043.34
2023-04-05T10:52:19.586Z,99033.91
2023-04-05T10:53:23.437Z,99044.94
2023-04-05T10:54:26.132Z,99037.94
2023-04-05T10:55:29.177Z,99039.84
2023-04-05T10:56:32.335Z,99030.94
2023-04-05T10:57:35.515Z,99033.34
2023-04-05T10:58:40.562Z,99039.81
2023-04-05T10:59:46.417Z,99033.63
2023-04-05T11:00:50.957Z,99039.28
2023-04-05T11:01:55.099Z,99035.53
2023-04-05T11:02:58.680Z,99025.81
2023-04-05T11:04:12.847Z,99033.91
2023-04-05T11:05:35.636Z,99027.44
2023-04-05T11:06:37.558Z,99030.94
2023-04-05T11:07:50.159Z,99024.47
2023-04-05T11:09:09.101Z,99031.75
2023-04-05T11:10:19.135Z,99022.56
2023-04-05T11:11:24.538Z,99025.00
2023-04-05T11:12:54.744Z,99022.03
2023-04-05T11:13:58.816Z,99028.78
2023-04-05T11:15:27.371Z,99021.00
2023-04-05T11:16:40.320Z,99020.19
2023-04-05T11:17:42.304Z,99022.88
2023-04-05T11:18:52.398Z,99016.66
2023-04-05T11:20:05.884Z,99030.44
2023-04-05T11:21:08.788Z,99020.19
2023-04-05T11:22:13.061Z,99021.22
2023-04-05T11:23:19.049Z,99008.56
2023-04-05T11:24:21.037Z,99016.13
2023-04-05T11:25:24.859Z,99016.66
2023-04-05T11:26:41.284Z,99014.81
2023-04-05T11:28:01.580Z,99011.03
2023-04-05T11:29:03.611Z,99019.91
2023-04-05T11:30:07.677Z,99015.88
2023-04-05T11:31:15.479Z,99019.38
2023-04-05T11:32:18.596Z,99019.38
2023-04-05T11:34:10.355Z,99011.22
2023-04-05T11:35:23.391Z,99011.81
2023-04-05T11:36:44.428Z,99013.94
2023-04-05T11:38:01.173Z,99011.22
2023-04-05T11:39:23.871Z,99012.59
2023-04-05T11:40:38.279Z,99003.16
2023-04-05T11:41:40.401Z,99001.28
2023-04-05T11:42:42.869Z,99002.66
2023-04-05T11:43:47.457Z,99000.47
2023-04-05T11:44:52.753Z,98996.69
2023-04-05T11:45:54.882Z,98991.03
2023-04-05T11:46:57.304Z,98997.22
2023-04-05T11:48:08.084Z,98998.84
2023-04-05T11:49:10.159Z,98991.56
2023-04-05T11:50:13.475Z,98996.44
2023-04-05T11:51:16.748Z,98999.94
2023-04-05T11:52:22.874Z,98998.56
2023-04-05T11:53:25.403Z,98994.25
2023-04-05T11:54:33.962Z,98997.75
2023-04-05T11:55:37.415Z,98985.91
2023-04-05T11:56:39.235Z,98988.34
2023-04-05T11:57:41.525Z,98984.03
2023-04-05T11:58:43.481Z,98990.75
2023-04-05T11:59:45.562Z,98986.44
2023-04-05T12:01:07.786Z,98991.53
2023-04-05T12:02:10.055Z,98991.00
2023-04-05T12:03:18.252Z,98984.25
2023-04-05T12:04:20.129Z,98983.19
2023-04-05T12:05:23.522Z,98991.00
2023-04-05T12:06:26.688Z,98985.63
2023-04-05T12:07:32.600Z,98983.44
2023-04-05T12:08:42.577Z,98980.75
2023-04-05T12:10:16.102Z,98978.56
2023-04-05T12:11:25.092Z,98983.97
2023-04-05T12:12:26.995Z,98972.94
2023-04-05T12:13:33.724Z,98980.75
2023-04-05T12:14:35.732Z,98972.13
2023-04-05T12:15:41.119Z,98972.94
2023-04-05T12:16:50.285Z,98973.19
2023-04-05T12:17:55.298Z,98978.84
2023-04-05T12:19:00.147Z,98969.16
2023-04-05T12:20:02.367Z,98962.72
2023-04-05T12:21:08.172Z,98967.00
2023-04-05T12:22:10.678Z,98961.34
2023-04-05T12:23:13.119Z,98961.88
2023-04-05T12:24:15.342Z,98965.91
2023-04-05T12:25:18.789Z,98957.00
2023-04-05T12:26:22.246Z,98958.91
2023-04-05T12:27:25.281Z,98965.63
2023-04-05T12:28:56.585Z,98954.84
2023-04-05T12:30:27.868Z,98955.91
2023-04-05T12:31:45.701Z,98952.66
2023-04-05T12:32:53.582Z,98954.31
2023-04-05T12:33:59.770Z,98947.28
2023-04-05T12:35:01.613Z,98954.84
2023-04-05T12:36:08.926Z,98950.78
2023-04-05T12:37:11.301Z,98951.59
2023-04-05T12:38:16.200Z,98947.28
2023-04-05T12:39:18.532Z,98942.69
2023-04-05T12:40:22.997Z,98944.31
2023-04-05T12:41:32.115Z,98942.97
2023-04-05T12:42:36.129Z,98952.13
2023-04-05T12:43:42.646Z,98956.16
2023-04-05T12:44:44.573Z,98945.38
2023-04-05T12:45:50.618Z,98944.84
2023-04-05T12:47:05.323Z,98946.19
2023-04-05T12:48:15.165Z,98946.47